createdAt,value
2023-04-20T00:00:22.835Z,37.60
2023-04-20T00:02:54.713Z,37.40
2023-04-20T00:05:23.998Z,37.40
2023-04-20T00:07:54.682Z,37.30
2023-04-20T00:10:23.278Z,37.20
2023-04-20T00:12:54.765Z,37.10
2023-04-20T00:15:26.394Z,37.00
2023-04-20T00:17:57.778Z,37.10
2023-04-20T00:20:27.150Z,37.10
2023-04-20T00:22:57.176Z,37.20
2023-04-20T00:25:25.920Z,37.10
2023-04-20T00:27:54.844Z,36.90
2023-04-20T00:30:23.927Z,36.90
2023-04-20T00:32:52.805Z,37.00
2023-04-20T00:35:23.868Z,37.10
2023-04-20T00:37:52.926Z,37.10
2023-04-20T00:40:21.672Z,37.30
2023-04-20T00:42:50.399Z,36.90
2023-04-20T00:45:19.103Z,37.50
2023-04-20T00:47:49.186Z,37.90
2023-04-20T00:50:18.979Z,38.10
2023-04-20T00:52:49.991Z,38.20
2023-04-20T00:55:19.178Z,38.50
2023-04-20T00:57:50.241Z,38.90
2023-04-20T01:00:19.416Z,39.00
2023-04-20T01:02:49.422Z,39.10
2023-04-20T01:05:18.661Z,39.20
2023-04-20T01:07:49.351Z,39.20
2023-04-20T01:10:18.428Z,39.50
2023-04-20T01:12:47.091Z,39.70
2023-04-20T01:15:15.948Z,39.80
2023-04-20T01:17:46.763Z,39.50
2023-04-20T01:20:20.587Z,39.10
2023-04-20T01:22:54.101Z,39.10
2023-04-20T01:25:23.458Z,39.10
2023-04-20T01:27:52.260Z,38.90
2023-04-20T01:30:21.292Z,39.30
2023-04-20T01:32:50.082Z,38.70
2023-04-20T01:35:23.386Z,38.50
2023-04-20T01:37:54.700Z,38.30
2023-04-20T01:40:24.696Z,37.80
2023-04-20T01:42:53.670Z,37.70
2023-04-20T01:45:22.727Z,37.60
2023-04-20T01:47:52.632Z,37.60
2023-04-20T01:50:22.828Z,37.50
2023-04-20T01:52:55.240Z,37.30
2023-04-20T01:55:26.404Z,37.40
2023-04-20T01:57:59.488Z,37.40
2023-04-20T02:00:35.787Z,37.50
2023-04-20T02:03:07.354Z,37.20
2023-04-20T02:05:38.124Z,37.30
2023-04-20T02:08:09.176Z,37.50
2023-04-20T02:10:40.271Z,37.50
2023-04-20T02:13:08.904Z,37.30
2023-04-20T02:15:39.109Z,37.20
2023-04-20T02:18:09.691Z,37.90
2023-04-20T02:20:38.561Z,37.40
2023-04-20T02:23:09.331Z,37.40
2023-04-20T02:25:37.991Z,37.50
2023-04-20T02:28:07.486Z,37.40
2023-04-20T02:30:36.326Z,37.20
2023-04-20T02:33:07.810Z,37.30
2023-04-20T02:35:36.947Z,37.10
2023-04-20T02:38:07.652Z,37.30
2023-04-20T02:40:36.708Z,37.00
2023-04-20T02:43:05.536Z,37.00
2023-04-20T02:45:37.907Z,37.10
2023-04-20T02:48:07.971Z,37.30
2023-04-20T02:50:38.087Z,37.30
2023-04-20T02:53:09.229Z,37.30
2023-04-20T02:55:38.335Z,37.30
2023-04-20T02:58:07.358Z,37.40
2023-04-20T03:00:36.154Z,37.30
2023-04-20T03:03:05.845Z,37.20
2023-04-20T03:05:34.847Z,37.20
2023-04-20T03:08:05.364Z,37.50
2023-04-20T03:10:38.250Z,37.60
2023-04-20T03:13:07.780Z,37.60
2023-04-20T03:15:38.615Z,37.60
2023-04-20T03:18:08.681Z,37.70
2023-04-20T03:20:37.709Z,38.00
2023-04-20T03:23:06.326Z,38.30
2023-04-20T03:25:37.280Z,38.40
2023-04-20T03:28:06.630Z,38.30
2023-04-20T03:30:35.326Z,38.30
2023-04-20T03:33:04.089Z,38.40
2023-04-20T03:35:34.366Z,38.40
2023-04-20T03:38:02.969Z,38.40
2023-04-20T03:40:32.815Z,38.50
2023-04-20T03:43:03.480Z,38.70
2023-04-20T03:45:33.753Z,38.90
2023-04-20T03:48:03.892Z,38.90
2023-04-20T03:50:32.503Z,38.90
2023-04-20T03:53:01.305Z,39.50
2023-04-20T03:55:29.974Z,39.20
2023-04-20T03:57:58.609Z,39.50
2023-04-20T04:00:28.963Z,39.70
2023-04-20T04:02:58.206Z,39.90
2023-04-20T04:05:27.161Z,39.80
2023-04-20T04:07:56.936Z,39.90
2023-04-20T04:10:25.733Z,39.60
2023-04-20T04:12:54.322Z,39.50
2023-04-20T04:15:23.148Z,39.30
2023-04-20T04:17:55.233Z,39.40
2023-04-20T04:20:24.170Z,39.10
2023-04-20T04:22:53.277Z,39.10
2023-04-20T04:25:23.542Z,38.90
2023-04-20T04:27:53.305Z,38.80
2023-04-20T04:30:21.932Z,38.70
2023-04-20T04:32:50.812Z,38.90
2023-04-20T04:35:26.358Z,38.80
2023-04-20T04:37:55.353Z,38.60
2023-04-20T04:40:24.601Z,39.20
2023-04-20T04:42:53.940Z,39.20
2023-04-20T04:45:25.455Z,39.50
2023-04-20T04:47:57.462Z,39.70
2023-04-20T04:50:28.775Z,39.40
2023-04-20T04:52:57.501Z,39.30
2023-04-20T04:58:15.592Z,38.60
2023-04-20T05:00:45.302Z,38.60
2023-04-20T05:03:14.170Z,38.60
2023-04-20T05:05:46.033Z,38.50
2023-04-20T05:08:15.672Z,38.70
2023-04-20T05:10:45.144Z,39.20
2023-04-20T05:13:13.812Z,39.40
2023-04-20T05:15:43.950Z,39.30
2023-04-20T05:18:13.855Z,39.30
2023-04-20T05:20:45.235Z,39.00
2023-04-20T05:23:16.309Z,38.50
2023-04-20T05:25:46.950Z,38.70
2023-04-20T05:28:16.589Z,38.80
2023-04-20T05:30:45.819Z,38.70
2023-04-20T05:33:19.374Z,38.80
2023-04-20T05:35:51.798Z,38.90
2023-04-20T05:38:20.886Z,39.30
2023-04-20T05:40:52.866Z,39.10
2023-04-20T05:46:28.007Z,38.80
2023-04-20T05:48:57.571Z,39.40
2023-04-20T05:51:34.949Z,38.60
2023-04-20T05:57:05.560Z,38.20
2023-04-20T05:59:38.675Z,38.00
2023-04-20T06:02:16.059Z,37.40
2023-04-20T06:05:00.709Z,37.30
2023-04-20T06:07:36.845Z,37.00
2023-04-20T06:10:08.927Z,37.50
2023-04-20T06:25:20.032Z,37.50
2023-04-20T06:31:39.216Z,37.40
2023-04-20T06:34:25.397Z,37.10
2023-04-20T06:37:20.801Z,37.00
2023-04-20T06:43:42.144Z,36.70
2023-04-20T06:46:16.128Z,36.50
2023-04-20T06:48:53.940Z,36.50
2023-04-20T07:19:33.463Z,37.50
2023-04-20T07:32:05.325Z,37.30
2023-04-20T07:34:51.017Z,37.20
2023-04-20T07:37:27.469Z,37.10
2023-04-20T07:40:01.645Z,36.50
2023-04-20T07:42:32.028Z,36.70
2023-04-20T07:45:05.817Z,36.90
2023-04-20T07:47:39.308Z,37.10
2023-04-20T07:50:13.270Z,37.10
2023-04-20T07:52:44.703Z,36.90
2023-04-20T07:55:22.984Z,37.00
2023-04-20T07:57:52.809Z,36.70
2023-04-20T08:00:23.361Z,36.60
2023-04-20T10:18:45.078Z,37.20
2023-04-20T10:21:26.584Z,36.90
2023-04-20T10:29:19.619Z,36.70
2023-04-20T10:34:35.411Z,36.40
2023-04-20T10:37:12.296Z,37.10
2023-04-20T10:39:48.262Z,37.90
2023-04-20T10:42:18.193Z,38.30
2023-04-20T10:44:56.927Z,38.50
2023-04-20T10:47:34.593Z,37.10
2023-04-20T10:50:45.261Z,37.50
2023-04-20T10:53:23.737Z,36.60
2023-04-20T10:56:02.984Z,36.40
2023-04-20T10:58:32.577Z,37.60
2023-04-20T11:01:02.994Z,36.80
2023-04-20T11:03:35.076Z,37.80
2023-04-20T11:06:10.178Z,38.00
2023-04-20T11:08:47.799Z,38.00
2023-04-20T11:12:13.906Z,37.50
2023-04-20T11:14:58.677Z,37.50
2023-04-20T11:17:35.707Z,37.40
2023-04-20T11:20:18.951Z,37.20
2023-04-20T11:23:01.425Z,37.50
2023-04-20T11:25:33.739Z,37.70
2023-04-20T11:28:18.052Z,38.20
2023-04-20T11:30:47.349Z,37.40
2023-04-20T11:33:28.138Z,37.30
2023-04-20T11:35:59.310Z,37.90
2023-04-20T11:38:35.650Z,37.60
2023-04-20T11:41:08.361Z,38.00
2023-04-20T11:43:40.942Z,38.00
2023-04-20T11:46:17.171Z,38.70
2023-04-20T11:48:46.761Z,38.70
2023-04-20T11:51:18.292Z,38.80
2023-04-20T11:53:49.920Z,38.10
2023-04-20T11:56:26.796Z,38.50
2023-04-20T12:01:44.804Z,37.40
2023-04-20T12:04:17.006Z,37.50
2023-04-20T12:06:47.125Z,38.20
2023-04-20T12:09:18.518Z,38.30
2023-04-20T12:11:52.372Z,38.10
2023-04-20T12:14:26.491Z,37.50
2023-04-20T12:16:58.669Z,37.10
2023-04-20T12:22:33.158Z,36.60
2023-04-20T12:25:28.642Z,35.80
2023-04-20T12:28:23.479Z,36.70
2023-04-20T12:30:55.844Z,37.20
2023-04-20T12:33:29.013Z,36.30
2023-04-20T12:36:03.405Z,35.80
2023-04-20T12:38:46.581Z,36.30
2023-04-20T12:42:20.466Z,36.40
2023-04-20T12:52:42.151Z,37.70
2023-04-20T13:10:52.493Z,38.20
2023-04-20T13:13:47.287Z,38.00
2023-04-20T13:17:28.361Z,38.20
2023-04-20T13:23:48.862Z,38.60
2023-04-20T13:26:57.035Z,38.60
2023-04-20T13:32:39.558Z,38.60
2023-04-20T13:35:20.635Z,39.10
2023-04-20T13:37:58.379Z,37.30
2023-04-20T13:40:28.201Z,38.20
2023-04-20T13:42:58.001Z,37.80
2023-04-20T13:45:35.709Z,37.10
2023-04-20T13:48:11.349Z,37.80
2023-04-20T13:51:18.130Z,38.40
2023-04-20T13:54:14.582Z,38.60
2023-04-20T13:57:29.454Z,38.90
2023-04-20T14:00:21.580Z,38.40
2023-04-20T14:03:57.104Z,38.90
2023-04-20T14:09:44.703Z,38.80
2023-04-20T14:12:49.734Z,40.10
2023-04-20T14:15:26.070Z,40.50
2023-04-20T14:17:58.168Z,40.00
2023-04-20T14:20:27.294Z,40.50
2023-04-20T14:23:01.773Z,41.70
2023-04-20T14:25:31.869Z,42.30
2023-04-20T14:28:01.398Z,42.90
2023-04-20T14:30:30.734Z,43.80
2023-04-20T14:33:04.222Z,44.40
2023-04-20T14:35:38.304Z,45.20
2023-04-20T14:38:44.443Z,46.10
2023-04-20T14:41:14.895Z,46.40
2023-04-20T14:44:12.827Z,47.20
2023-04-20T14:46:46.325Z,47.20
2023-04-20T14:49:20.507Z,46.90
2023-04-20T14:51:56.066Z,48.00
2023-04-20T14:54:47.214Z,47.50
2023-04-20T14:57:25.772Z,47.60
2023-04-20T15:00:10.369Z,47.40
2023-04-20T15:02:44.568Z,47.50
2023-04-20T15:05:32.793Z,47.90
2023-04-20T15:08:03.797Z,47.70
2023-04-20T15:14:00.582Z,48.10
2023-04-20T15:16:30.799Z,48.00
2023-04-20T15:19:14.799Z,48.20
2023-04-20T15:24:43.379Z,48.90
2023-04-20T15:27:17.652Z,49.50
2023-04-20T15:29:54.450Z,49.40
2023-04-20T15:32:23.549Z,49.40
2023-04-20T15:34:53.730Z,49.30
2023-04-20T15:37:22.907Z,49.40
2023-04-20T15:39:51.550Z,49.60
2023-04-20T15:42:25.768Z,49.60
2023-04-20T15:44:57.880Z,50.10
2023-04-20T15:47:27.089Z,50.50
2023-04-20T15:50:01.720Z,51.00
2023-04-20T15:52:34.472Z,51.40
2023-04-20T15:55:03.525Z,51.30
2023-04-20T15:57:39.540Z,51.10
2023-04-20T16:00:11.239Z,51.30
2023-04-20T16:02:41.036Z,51.70
2023-04-20T16:05:10.598Z,51.70
2023-04-20T16:07:39.538Z,51.60
2023-04-20T16:10:11.525Z,51.40
2023-04-20T16:12:41.870Z,51.30
2023-04-20T16:15:12.231Z,51.60
2023-04-20T16:17:41.639Z,51.30
2023-04-20T16:20:12.379Z,51.40
2023-04-20T16:22:42.221Z,51.30
2023-04-20T16:25:17.579Z,51.20
2023-04-20T16:27:49.483Z,50.70
2023-04-20T16:30:19.253Z,50.80
2023-04-20T16:32:54.748Z,50.40
2023-04-20T16:35:25.838Z,50.10
2023-04-20T16:37:57.286Z,50.00
2023-04-20T16:40:28.774Z,50.00
2023-04-20T16:42:59.182Z,50.20
2023-04-20T16:45:29.893Z,50.00
2023-04-20T16:48:01.201Z,49.70
2023-04-20T16:50:32.858Z,49.80
2023-04-20T16:53:01.848Z,49.40
2023-04-20T16:55:34.206Z,49.20
2023-04-20T16:58:42.573Z,49.00
2023-04-20T17:01:05.749Z,49.00
2023-04-20T17:04:06.721Z,48.70
2023-04-20T17:06:31.962Z,48.40
2023-04-20T17:11:49.764Z,48.10
2023-04-20T17:17:39.115Z,48.30
2023-04-20T17:20:42.894Z,48.40
2023-04-20T17:23:19.706Z,48.50
2023-04-20T17:26:03.682Z,49.30
2023-04-20T17:28:41.030Z,49.40
2023-04-20T17:31:30.490Z,49.70
2023-04-20T17:34:00.575Z,50.60
2023-04-20T17:36:29.452Z,51.30
2023-04-20T18:06:02.682Z,51.10
2023-04-20T18:51:53.037Z,50.70
2023-04-20T18:54:24.546Z,50.60
2023-04-20T18:56:55.086Z,50.40
2023-04-20T18:59:24.809Z,50.30
2023-04-20T19:04:45.167Z,50.00
2023-04-20T19:07:23.664Z,50.00
2023-04-20T19:09:52.581Z,49.90
2023-04-20T19:12:22.159Z,49.80
2023-04-20T19:14:52.027Z,49.80
2023-04-20T19:17:26.376Z,49.80
2023-04-20T19:19:56.887Z,49.80
2023-04-20T19:22:30.813Z,50.40
2023-04-20T19:24:59.772Z,49.70
2023-04-20T19:27:30.783Z,49.70
2023-04-20T19:30:13.877Z,49.80
2023-04-20T19:32:48.677Z,49.80
2023-04-20T19:35:22.328Z,49.90
2023-04-20T19:37:51.201Z,50.10
2023-04-20T19:40:24.412Z,50.50
2023-04-20T19:42:54.559Z,50.70
2023-04-20T19:45:23.835Z,51.10
2023-04-20T19:48:00.342Z,51.30
2023-04-20T19:50:31.421Z,51.40
2023-04-20T19:53:05.173Z,51.20
2023-04-20T19:55:36.872Z,51.00
2023-04-20T19:58:09.711Z,50.90
2023-04-20T20:00:46.481Z,50.90
2023-04-20T20:03:17.345Z,50.70
2023-04-20T20:05:53.949Z,50.60
2023-04-20T20:08:31.792Z,50.30
2023-04-20T20:11:04.602Z,50.20
2023-04-20T20:13:34.587Z,50.00
2023-04-20T20:16:08.117Z,50.00
2023-04-20T20:18:55.719Z,49.50
2023-04-20T20:21:37.470Z,49.70
2023-04-20T20:24:37.189Z,50.50
2023-04-20T20:31:10.563Z,51.00
2023-04-20T23:07:06.724Z,52.20
2023-04-20T23:19:17.604Z,51.60
2023-04-20T23:21:47.674Z,51.50
2023-04-20T23:24:38.230Z,51.40
2023-04-20T23:27:09.516Z,51.70
2023-04-20T23:33:07.458Z,51.50
2023-04-20T23:36:15.263Z,50.90
2023-04-20T23:38:57.177Z,51.00
2023-04-20T23:41:28.543Z,51.10
2023-04-20T23:44:02.627Z,50.50
